Avery, Oklahoma
Current Conditions -  °F | °C
As of 6:15 AM on Sunday 23 Nov 2014 (Local Time) from KCUH Reporting Station
Overcast Overcast  
Wind Chill: 55°   Ceiling: 1200
Heat Index: 55°   Visibility: 10mi
Dew Point: 55°   Wind: 8mph
Humidity: 100%   Direction: 170°S
Pressure: 29.51"   Gusts: NA
Location:  35.9968°N, 96.7376°W
Report Text: KCUH 231215Z AUTO 17007KT 10SM BKN012 OVC018 13/13 A2951 RMK AO2
Loading
Personal Weather Stations






























Interactive Weather Map New forecast layout! Learn more

10-Day Weather Forecast

Advertisements
Track Severe Weather on mobile